sensor_id;sensor_type;location;lat;lon;timestamp;P1;durP1;ratioP1;P2;durP2;ratioP2
41293;SDS011;27037;52.010;4.446;2023-09-18T00:01:49;61.53;;;38.05;;
41293;SDS011;27037;52.010;4.446;2023-09-18T00:04:15;60.58;;;37.42;;
41293;SDS011;27037;52.010;4.446;2023-09-18T00:06:41;53.42;;;35.05;;
41293;SDS011;27037;52.010;4.446;2023-09-18T00:09:07;58.72;;;38.83;;
41293;SDS011;27037;52.010;4.446;2023-09-18T00:11:36;61.45;;;38.70;;
41293;SDS011;27037;52.010;4.446;2023-09-18T00:14:03;55.63;;;37.25;;
41293;SDS011;27037;52.010;4.446;2023-09-18T00:16:29;54.13;;;36.10;;
41293;SDS011;27037;52.010;4.446;2023-09-18T00:18:55;55.53;;;35.97;;
41293;SDS011;27037;52.010;4.446;2023-09-18T00:21:21;56.63;;;37.40;;
41293;SDS011;27037;52.010;4.446;2023-09-18T00:23:46;56.70;;;37.47;;
41293;SDS011;27037;52.010;4.446;2023-09-18T00:26:12;60.22;;;38.72;;
41293;SDS011;27037;52.010;4.446;2023-09-18T00:28:38;53.33;;;34.83;;
41293;SDS011;27037;52.010;4.446;2023-09-18T00:31:03;57.70;;;37.47;;
41293;SDS011;27037;52.010;4.446;2023-09-18T00:33:29;53.53;;;35.50;;
41293;SDS011;27037;52.010;4.446;2023-09-18T00:35:54;51.38;;;34.72;;
41293;SDS011;27037;52.010;4.446;2023-09-18T00:38:20;48.13;;;33.63;;
41293;SDS011;27037;52.010;4.446;2023-09-18T00:40:46;55.28;;;36.50;;
41293;SDS011;27037;52.010;4.446;2023-09-18T00:43:11;53.50;;;35.72;;
41293;SDS011;27037;52.010;4.446;2023-09-18T00:45:47;53.88;;;35.38;;
41293;SDS011;27037;52.010;4.446;2023-09-18T00:48:17;53.92;;;33.97;;
41293;SDS011;27037;52.010;4.446;2023-09-18T00:50:46;56.53;;;35.67;;
41293;SDS011;27037;52.010;4.446;2023-09-18T00:53:15;47.88;;;31.88;;
41293;SDS011;27037;52.010;4.446;2023-09-18T00:55:45;50.45;;;34.33;;
41293;SDS011;27037;52.010;4.446;2023-09-18T00:58:11;50.60;;;34.70;;
41293;SDS011;27037;52.010;4.446;2023-09-18T01:00:37;47.47;;;33.80;;
41293;SDS011;27037;52.010;4.446;2023-09-18T01:03:03;48.65;;;32.45;;
41293;SDS011;27037;52.010;4.446;2023-09-18T01:05:33;49.50;;;32.40;;
41293;SDS011;27037;52.010;4.446;2023-09-18T01:07:58;48.20;;;32.17;;
41293;SDS011;27037;52.010;4.446;2023-09-18T01:10:24;47.25;;;32.25;;
41293;SDS011;27037;52.010;4.446;2023-09-18T01:13:13;50.08;;;33.25;;
41293;SDS011;27037;52.010;4.446;2023-09-18T01:15:52;45.25;;;32.70;;
41293;SDS011;27037;52.010;4.446;2023-09-18T01:18:22;45.83;;;32.40;;
41293;SDS011;27037;52.010;4.446;2023-09-18T01:20:48;51.92;;;34.20;;
41293;SDS011;27037;52.010;4.446;2023-09-18T01:23:14;48.88;;;34.08;;
41293;SDS011;27037;52.010;4.446;2023-09-18T01:25:39;49.78;;;34.28;;
41293;SDS011;27037;52.010;4.446;2023-09-18T01:28:05;52.30;;;35.53;;
41293;SDS011;27037;52.010;4.446;2023-09-18T01:30:30;56.28;;;35.92;;
41293;SDS011;27037;52.010;4.446;2023-09-18T01:32:56;48.30;;;33.90;;
41293;SDS011;27037;52.010;4.446;2023-09-18T01:35:25;44.13;;;32.42;;
41293;SDS011;27037;52.010;4.446;2023-09-18T01:37:55;49.05;;;33.10;;
41293;SDS011;27037;52.010;4.446;2023-09-18T01:40:23;51.00;;;34.92;;
41293;SDS011;27037;52.010;4.446;2023-09-18T01:42:49;47.13;;;32.80;;
41293;SDS011;27037;52.010;4.446;2023-09-18T01:45:15;48.17;;;34.30;;
41293;SDS011;27037;52.010;4.446;2023-09-18T01:47:41;48.85;;;34.03;;
41293;SDS011;27037;52.010;4.446;2023-09-18T01:50:07;49.83;;;34.30;;
41293;SDS011;27037;52.010;4.446;2023-09-18T01:52:32;48.95;;;33.95;;
41293;SDS011;27037;52.010;4.446;2023-09-18T01:55:02;50.30;;;33.80;;
41293;SDS011;27037;52.010;4.446;2023-09-18T01:57:31;53.35;;;35.75;;
41293;SDS011;27037;52.010;4.446;2023-09-18T01:59:56;53.20;;;35.78;;
41293;SDS011;27037;52.010;4.446;2023-09-18T02:02:22;46.58;;;32.63;;
41293;SDS011;27037;52.010;4.446;2023-09-18T02:04:48;47.53;;;32.83;;
41293;SDS011;27037;52.010;4.446;2023-09-18T02:07:14;47.25;;;33.05;;
41293;SDS011;27037;52.010;4.446;2023-09-18T02:09:40;49.00;;;34.38;;
41293;SDS011;27037;52.010;4.446;2023-09-18T02:12:06;49.35;;;34.60;;
41293;SDS011;27037;52.010;4.446;2023-09-18T02:14:32;45.20;;;31.77;;
41293;SDS011;27037;52.010;4.446;2023-09-18T02:16:57;45.95;;;31.80;;
41293;SDS011;27037;52.010;4.446;2023-09-18T02:19:23;48.88;;;32.60;;
41293;SDS011;27037;52.010;4.446;2023-09-18T02:21:49;45.47;;;31.80;;
41293;SDS011;27037;52.010;4.446;2023-09-18T02:24:14;49.63;;;30.85;;
41293;SDS011;27037;52.010;4.446;2023-09-18T02:26:40;42.30;;;29.20;;
41293;SDS011;27037;52.010;4.446;2023-09-18T02:29:07;40.80;;;29.15;;
41293;SDS011;27037;52.010;4.446;2023-09-18T02:31:38;45.58;;;29.00;;
41293;SDS011;27037;52.010;4.446;2023-09-18T02:34:04;40.65;;;28.38;;
41293;SDS011;27037;52.010;4.446;2023-09-18T02:36:30;38.03;;;26.38;;
41293;SDS011;27037;52.010;4.446;2023-09-18T02:38:56;39.75;;;26.40;;
41293;SDS011;27037;52.010;4.446;2023-09-18T02:41:21;38.45;;;26.20;;
41293;SDS011;27037;52.010;4.446;2023-09-18T02:43:47;35.22;;;25.13;;
41293;SDS011;27037;52.010;4.446;2023-09-18T02:46:13;38.70;;;24.90;;
41293;SDS011;27037;52.010;4.446;2023-09-18T02:48:38;34.00;;;24.15;;
41293;SDS011;27037;52.010;4.446;2023-09-18T02:51:04;32.63;;;23.50;;
41293;SDS011;27037;52.010;4.446;2023-09-18T02:53:30;35.45;;;24.70;;
41293;SDS011;27037;52.010;4.446;2023-09-18T02:55:57;34.05;;;23.70;;
41293;SDS011;27037;52.010;4.446;2023-09-18T02:58:24;31.10;;;22.67;;
41293;SDS011;27037;52.010;4.446;2023-09-18T03:00:55;32.80;;;21.90;;
41293;SDS011;27037;52.010;4.446;2023-09-18T03:03:25;29.65;;;22.50;;
41293;SDS011;27037;52.010;4.446;2023-09-18T03:05:50;33.55;;;21.88;;
41293;SDS011;27037;52.010;4.446;2023-09-18T03:08:16;30.98;;;23.52;;
41293;SDS011;27037;52.010;4.446;2023-09-18T03:10:43;32.85;;;22.85;;
41293;SDS011;27037;52.010;4.446;2023-09-18T03:13:10;33.75;;;23.23;;
41293;SDS011;27037;52.010;4.446;2023-09-18T03:15:38;31.10;;;22.23;;
41293;SDS011;27037;52.010;4.446;2023-09-18T03:18:04;33.88;;;23.70;;
41293;SDS011;27037;52.010;4.446;2023-09-18T03:20:31;29.33;;;21.67;;
41293;SDS011;27037;52.010;4.446;2023-09-18T03:22:57;31.13;;;21.95;;
41293;SDS011;27037;52.010;4.446;2023-09-18T03:25:24;29.75;;;21.88;;
41293;SDS011;27037;52.010;4.446;2023-09-18T03:27:54;37.80;;;23.42;;
41293;SDS011;27037;52.010;4.446;2023-09-18T03:30:21;37.13;;;23.67;;
41293;SDS011;27037;52.010;4.446;2023-09-18T03:32:48;38.10;;;24.42;;
41293;SDS011;27037;52.010;4.446;2023-09-18T03:35:14;35.25;;;24.42;;
41293;SDS011;27037;52.010;4.446;2023-09-18T03:37:46;40.05;;;23.95;;
41293;SDS011;27037;52.010;4.446;2023-09-18T03:40:16;52.53;;;26.02;;
41293;SDS011;27037;52.010;4.446;2023-09-18T03:42:43;48.85;;;27.23;;
41293;SDS011;27037;52.010;4.446;2023-09-18T03:45:10;42.95;;;24.50;;
41293;SDS011;27037;52.010;4.446;2023-09-18T03:47:36;40.67;;;25.27;;
41293;SDS011;27037;52.010;4.446;2023-09-18T03:50:04;39.90;;;24.40;;
41293;SDS011;27037;52.010;4.446;2023-09-18T03:52:39;35.10;;;23.30;;
41293;SDS011;27037;52.010;4.446;2023-09-18T03:55:05;34.75;;;22.23;;
41293;SDS011;27037;52.010;4.446;2023-09-18T03:57:31;35.58;;;22.33;;
41293;SDS011;27037;52.010;4.446;2023-09-18T03:59:57;34.22;;;23.00;;
41293;SDS011;27037;52.010;4.446;2023-09-18T04:02:23;32.95;;;21.63;;
41293;SDS011;27037;52.010;4.446;2023-09-18T04:04:50;33.78;;;21.33;;
41293;SDS011;27037;52.010;4.446;2023-09-18T04:07:16;32.20;;;20.42;;
41293;SDS011;27037;52.010;4.446;2023-09-18T04:09:44;30.98;;;19.90;;
41293;SDS011;27037;52.010;4.446;2023-09-18T04:12:10;31.45;;;20.10;;
41293;SDS011;27037;52.010;4.446;2023-09-18T04:14:36;34.42;;;20.70;;
41293;SDS011;27037;52.010;4.446;2023-09-18T04:17:01;33.60;;;20.63;;
41293;SDS011;27037;52.010;4.446;2023-09-18T04:19:27;34.92;;;20.90;;
41293;SDS011;27037;52.010;4.446;2023-09-18T04:21:53;31.88;;;20.92;;
41293;SDS011;27037;52.010;4.446;2023-09-18T04:24:19;33.40;;;20.55;;
41293;SDS011;27037;52.010;4.446;2023-09-18T04:26:45;30.52;;;20.23;;
41293;SDS011;27037;52.010;4.446;2023-09-18T04:29:10;34.80;;;21.33;;
41293;SDS011;27037;52.010;4.446;2023-09-18T04:31:36;29.73;;;19.60;;
41293;SDS011;27037;52.010;4.446;2023-09-18T04:34:03;28.40;;;19.13;;
41293;SDS011;27037;52.010;4.446;2023-09-18T04:36:29;30.27;;;18.95;;
41293;SDS011;27037;52.010;4.446;2023-09-18T04:38:55;33.33;;;18.52;;
41293;SDS011;27037;52.010;4.446;2023-09-18T04:41:20;27.92;;;18.48;;
41293;SDS011;27037;52.010;4.446;2023-09-18T04:43:46;28.10;;;19.00;;
41293;SDS011;27037;52.010;4.446;2023-09-18T04:46:12;25.58;;;18.48;;
41293;SDS011;27037;52.010;4.446;2023-09-18T04:48:38;29.77;;;19.08;;
41293;SDS011;27037;52.010;4.446;2023-09-18T04:51:03;29.88;;;18.63;;
41293;SDS011;27037;52.010;4.446;2023-09-18T04:53:29;33.33;;;18.92;;
41293;SDS011;27037;52.010;4.446;2023-09-18T04:55:55;28.73;;;19.45;;
41293;SDS011;27037;52.010;4.446;2023-09-18T04:58:21;34.53;;;19.17;;
41293;SDS011;27037;52.010;4.446;2023-09-18T05:00:47;31.20;;;19.13;;
41293;SDS011;27037;52.010;4.446;2023-09-18T05:03:19;31.85;;;20.38;;
41293;SDS011;27037;52.010;4.446;2023-09-18T05:05:45;35.05;;;20.65;;
41293;SDS011;27037;52.010;4.446;2023-09-18T05:08:11;31.70;;;20.35;;
41293;SDS011;27037;52.010;4.446;2023-09-18T05:10:37;33.35;;;21.25;;
41293;SDS011;27037;52.010;4.446;2023-09-18T05:13:02;32.28;;;21.00;;
41293;SDS011;27037;52.010;4.446;2023-09-18T05:15:29;36.70;;;20.45;;
41293;SDS011;27037;52.010;4.446;2023-09-18T05:17:55;31.20;;;20.83;;
41293;SDS011;27037;52.010;4.446;2023-09-18T05:20:23;32.40;;;21.33;;
41293;SDS011;27037;52.010;4.446;2023-09-18T05:22:53;36.08;;;21.80;;
41293;SDS011;27037;52.010;4.446;2023-09-18T05:25:21;35.35;;;21.38;;
41293;SDS011;27037;52.010;4.446;2023-09-18T05:27:51;32.30;;;22.17;;
41293;SDS011;27037;52.010;4.446;2023-09-18T05:30:28;36.17;;;22.30;;
41293;SDS011;27037;52.010;4.446;2023-09-18T05:33:06;36.05;;;23.48;;
41293;SDS011;27037;52.010;4.446;2023-09-18T05:35:33;36.33;;;22.92;;
41293;SDS011;27037;52.010;4.446;2023-09-18T05:38:01;34.20;;;23.48;;
41293;SDS011;27037;52.010;4.446;2023-09-18T05:40:27;33.53;;;21.58;;
41293;SDS011;27037;52.010;4.446;2023-09-18T05:42:53;34.67;;;21.95;;
41293;SDS011;27037;52.010;4.446;2023-09-18T05:45:20;33.33;;;22.27;;
41293;SDS011;27037;52.010;4.446;2023-09-18T05:47:45;37.97;;;23.10;;
41293;SDS011;27037;52.010;4.446;2023-09-18T05:50:12;38.22;;;23.15;;
41293;SDS011;27037;52.010;4.446;2023-09-18T05:52:45;35.70;;;23.35;;
41293;SDS011;27037;52.010;4.446;2023-09-18T05:55:12;36.17;;;23.10;;
41293;SDS011;27037;52.010;4.446;2023-09-18T05:57:39;35.63;;;22.77;;
41293;SDS011;27037;52.010;4.446;2023-09-18T06:00:04;35.15;;;23.58;;
41293;SDS011;27037;52.010;4.446;2023-09-18T06:02:31;36.60;;;23.58;;
41293;SDS011;27037;52.010;4.446;2023-09-18T06:04:57;40.10;;;23.48;;
41293;SDS011;27037;52.010;4.446;2023-09-18T06:07:25;36.00;;;23.55;;
41293;SDS011;27037;52.010;4.446;2023-09-18T06:09:52;39.22;;;24.52;;
41293;SDS011;27037;52.010;4.446;2023-09-18T06:12:18;44.10;;;25.27;;
41293;SDS011;27037;52.010;4.446;2023-09-18T06:14:43;36.15;;;24.23;;
41293;SDS011;27037;52.010;4.446;2023-09-18T06:17:10;46.20;;;24.52;;
41293;SDS011;27037;52.010;4.446;2023-09-18T06:19:35;35.35;;;22.80;;
41293;SDS011;27037;52.010;4.446;2023-09-18T06:22:01;37.22;;;23.00;;
41293;SDS011;27037;52.010;4.446;2023-09-18T06:24:27;34.40;;;21.42;;
41293;SDS011;27037;52.010;4.446;2023-09-18T06:26:52;30.25;;;19.80;;
41293;SDS011;27037;52.010;4.446;2023-09-18T06:29:18;27.67;;;18.05;;
41293;SDS011;27037;52.010;4.446;2023-09-18T06:31:44;24.85;;;16.50;;
41293;SDS011;27037;52.010;4.446;2023-09-18T06:34:10;24.10;;;15.38;;
41293;SDS011;27037;52.010;4.446;2023-09-18T06:36:36;17.00;;;11.73;;
41293;SDS011;27037;52.010;4.446;2023-09-18T06:39:02;19.10;;;11.40;;
41293;SDS011;27037;52.010;4.446;2023-09-18T06:41:28;19.60;;;11.40;;
41293;SDS011;27037;52.010;4.446;2023-09-18T06:43:53;18.30;;;11.73;;
41293;SDS011;27037;52.010;4.446;2023-09-18T06:46:19;17.23;;;11.20;;
41293;SDS011;27037;52.010;4.446;2023-09-18T06:48:45;17.65;;;10.43;;
41293;SDS011;27037;52.010;4.446;2023-09-18T06:51:14;15.20;;;9.85;;
41293;SDS011;27037;52.010;4.446;2023-09-18T06:53:40;14.32;;;9.25;;
41293;SDS011;27037;52.010;4.446;2023-09-18T06:56:05;12.82;;;8.70;;
41293;SDS011;27037;52.010;4.446;2023-09-18T06:58:31;14.27;;;9.35;;
41293;SDS011;27037;52.010;4.446;2023-09-18T07:00:57;19.17;;;9.13;;
41293;SDS011;27037;52.010;4.446;2023-09-18T07:03:22;14.20;;;8.63;;
41293;SDS011;27037;52.010;4.446;2023-09-18T07:05:48;13.98;;;8.00;;
41293;SDS011;27037;52.010;4.446;2023-09-18T07:08:14;12.82;;;7.40;;
41293;SDS011;27037;52.010;4.446;2023-09-18T07:10:44;11.30;;;6.82;;
41293;SDS011;27037;52.010;4.446;2023-09-18T07:13:10;13.57;;;6.18;;
41293;SDS011;27037;52.010;4.446;2023-09-18T07:15:36;9.27;;;5.55;;
41293;SDS011;27037;52.010;4.446;2023-09-18T07:18:02;8.88;;;5.40;;
41293;SDS011;27037;52.010;4.446;2023-09-18T07:20:28;8.98;;;5.50;;
41293;SDS011;27037;52.010;4.446;2023-09-18T07:22:55;8.60;;;4.88;;
41293;SDS011;27037;52.010;4.446;2023-09-18T07:25:21;8.27;;;5.18;;
41293;SDS011;27037;52.010;4.446;2023-09-18T07:27:46;9.93;;;5.32;;
41293;SDS011;27037;52.010;4.446;2023-09-18T07:30:12;9.38;;;5.90;;
41293;SDS011;27037;52.010;4.446;2023-09-18T07:32:42;8.93;;;5.50;;
41293;SDS011;27037;52.010;4.446;2023-09-18T07:35:08;9.80;;;5.10;;
41293;SDS011;27037;52.010;4.446;2023-09-18T07:37:35;10.18;;;5.43;;
41293;SDS011;27037;52.010;4.446;2023-09-18T07:40:01;11.98;;;5.40;;
41293;SDS011;27037;52.010;4.446;2023-09-18T07:42:33;12.25;;;5.60;;
41293;SDS011;27037;52.010;4.446;2023-09-18T07:44:59;8.68;;;5.43;;
41293;SDS011;27037;52.010;4.446;2023-09-18T07:47:25;11.68;;;5.75;;
41293;SDS011;27037;52.010;4.446;2023-09-18T07:49:50;8.77;;;5.05;;
41293;SDS011;27037;52.010;4.446;2023-09-18T07:52:16;8.55;;;5.13;;
41293;SDS011;27037;52.010;4.446;2023-09-18T07:54:43;7.85;;;4.95;;
41293;SDS011;27037;52.010;4.446;2023-09-18T07:57:09;9.63;;;4.65;;
41293;SDS011;27037;52.010;4.446;2023-09-18T07:59:35;10.32;;;4.97;;
41293;SDS011;27037;52.010;4.446;2023-09-18T08:02:01;9.90;;;4.40;;
41293;SDS011;27037;52.010;4.446;2023-09-18T08:04:27;11.20;;;4.90;;
41293;SDS011;27037;52.010;4.446;2023-09-18T08:06:52;7.35;;;4.28;;
41293;SDS011;27037;52.010;4.446;2023-09-18T08:09:18;9.25;;;4.25;;
41293;SDS011;27037;52.010;4.446;2023-09-18T08:11:44;9.18;;;4.07;;
41293;SDS011;27037;52.010;4.446;2023-09-18T08:14:09;9.13;;;3.85;;
41293;SDS011;27037;52.010;4.446;2023-09-18T08:16:37;8.27;;;3.88;;
41293;SDS011;27037;52.010;4.446;2023-09-18T08:19:03;10.55;;;3.88;;
41293;SDS011;27037;52.010;4.446;2023-09-18T08:21:29;7.72;;;4.15;;
41293;SDS011;27037;52.010;4.446;2023-09-18T08:23:55;5.40;;;3.42;;
41293;SDS011;27037;52.010;4.446;2023-09-18T08:26:21;8.18;;;3.75;;
41293;SDS011;27037;52.010;4.446;2023-09-18T08:28:47;7.13;;;3.80;;
41293;SDS011;27037;52.010;4.446;2023-09-18T08:31:12;8.48;;;3.80;;
41293;SDS011;27037;52.010;4.446;2023-09-18T08:33:41;8.30;;;3.63;;
41293;SDS011;27037;52.010;4.446;2023-09-18T08:36:07;9.50;;;3.90;;
41293;SDS011;27037;52.010;4.446;2023-09-18T08:38:32;7.70;;;3.85;;
41293;SDS011;27037;52.010;4.446;2023-09-18T08:40:58;6.68;;;4.18;;
41293;SDS011;27037;52.010;4.446;2023-09-18T08:43:24;7.90;;;4.35;;
41293;SDS011;27037;52.010;4.446;2023-09-18T08:45:51;6.95;;;4.28;;
41293;SDS011;27037;52.010;4.446;2023-09-18T08:48:18;7.22;;;4.10;;
41293;SDS011;27037;52.010;4.446;2023-09-18T08:50:45;8.95;;;4.50;;
41293;SDS011;27037;52.010;4.446;2023-09-18T08:53:11;7.10;;;4.22;;
41293;SDS011;27037;52.010;4.446;2023-09-18T08:55:36;7.18;;;4.40;;
41293;SDS011;27037;52.010;4.446;2023-09-18T08:58:02;11.60;;;4.95;;
41293;SDS011;27037;52.010;4.446;2023-09-18T09:00:28;10.48;;;4.50;;
41293;SDS011;27037;52.010;4.446;2023-09-18T09:02:54;8.00;;;4.35;;
41293;SDS011;27037;52.010;4.446;2023-09-18T09:05:20;6.28;;;4.20;;
41293;SDS011;27037;52.010;4.446;2023-09-18T09:07:46;8.80;;;4.80;;
41293;SDS011;27037;52.010;4.446;2023-09-18T09:10:13;8.65;;;4.78;;
41293;SDS011;27037;52.010;4.446;2023-09-18T09:15:26;7.93;;;4.68;;
41293;SDS011;27037;52.010;4.446;2023-09-18T09:18:03;8.30;;;4.38;;
41293;SDS011;27037;52.010;4.446;2023-09-18T09:20:31;6.43;;;4.20;;
41293;SDS011;27037;52.010;4.446;2023-09-18T09:23:01;6.90;;;3.88;;
41293;SDS011;27037;52.010;4.446;2023-09-18T09:25:29;8.75;;;3.97;;
41293;SDS011;27037;52.010;4.446;2023-09-18T09:27:59;8.52;;;3.95;;
41293;SDS011;27037;52.010;4.446;2023-09-18T09:30:26;5.85;;;3.60;;
41293;SDS011;27037;52.010;4.446;2023-09-18T09:32:53;5.63;;;3.88;;
41293;SDS011;27037;52.010;4.446;2023-09-18T09:35:21;5.55;;;3.95;;
41293;SDS011;27037;52.010;4.446;2023-09-18T09:38:11;5.15;;;3.60;;
41293;SDS011;27037;52.010;4.446;2023-09-18T09:40:39;6.43;;;3.60;;
41293;SDS011;27037;52.010;4.446;2023-09-18T09:43:07;8.70;;;3.83;;
41293;SDS011;27037;52.010;4.446;2023-09-18T09:45:40;7.53;;;4.35;;
41293;SDS011;27037;52.010;4.446;2023-09-18T09:48:06;7.13;;;3.95;;
41293;SDS011;27037;52.010;4.446;2023-09-18T09:50:33;11.55;;;4.22;;
41293;SDS011;27037;52.010;4.446;2023-09-18T09:53:20;9.35;;;3.90;;
41293;SDS011;27037;52.010;4.446;2023-09-18T09:56:12;7.55;;;4.10;;
41293;SDS011;27037;52.010;4.446;2023-09-18T09:58:37;12.30;;;4.40;;
41293;SDS011;27037;52.010;4.446;2023-09-18T10:01:06;5.75;;;4.13;;
41293;SDS011;27037;52.010;4.446;2023-09-18T10:03:36;7.43;;;4.82;;
41293;SDS011;27037;52.010;4.446;2023-09-18T10:06:03;11.68;;;4.40;;
41293;SDS011;27037;52.010;4.446;2023-09-18T10:08:30;6.88;;;4.38;;
41293;SDS011;27037;52.010;4.446;2023-09-18T10:11:09;6.68;;;4.30;;
41293;SDS011;27037;52.010;4.446;2023-09-18T10:13:48;10.93;;;4.55;;
41293;SDS011;27037;52.010;4.446;2023-09-18T10:16:18;10.70;;;4.80;;
41293;SDS011;27037;52.010;4.446;2023-09-18T10:19:00;9.05;;;4.07;;
41293;SDS011;27037;52.010;4.446;2023-09-18T10:24:19;8.60;;;4.70;;
41293;SDS011;27037;52.010;4.446;2023-09-18T10:26:50;9.55;;;4.75;;
41293;SDS011;27037;52.010;4.446;2023-09-18T10:29:21;6.78;;;4.30;;
41293;SDS011;27037;52.010;4.446;2023-09-18T10:31:48;7.95;;;4.10;;
41293;SDS011;27037;52.010;4.446;2023-09-18T10:34:16;9.32;;;4.60;;
41293;SDS011;27037;52.010;4.446;2023-09-18T10:36:43;8.57;;;3.80;;
41293;SDS011;27037;52.010;4.446;2023-09-18T10:39:13;6.80;;;3.60;;
41293;SDS011;27037;52.010;4.446;2023-09-18T10:41:44;6.30;;;3.67;;
41293;SDS011;27037;52.010;4.446;2023-09-18T10:44:14;6.15;;;3.60;;
41293;SDS011;27037;52.010;4.446;2023-09-18T10:46:41;8.32;;;3.83;;
41293;SDS011;27037;52.010;4.446;2023-09-18T10:49:07;9.60;;;3.60;;
41293;SDS011;27037;52.010;4.446;2023-09-18T10:51:33;8.15;;;3.78;;
41293;SDS011;27037;52.010;4.446;2023-09-18T10:53:59;8.82;;;2.90;;
41293;SDS011;27037;52.010;4.446;2023-09-18T10:56:25;8.25;;;3.70;;
41293;SDS011;27037;52.010;4.446;2023-09-18T10:59:00;7.07;;;3.05;;
41293;SDS011;27037;52.010;4.446;2023-09-18T11:01:31;9.50;;;3.60;;
41293;SDS011;27037;52.010;4.446;2023-09-18T11:04:00;7.47;;;3.15;;
41293;SDS011;27037;52.010;4.446;2023-09-18T11:06:28;9.07;;;3.10;;
41293;SDS011;27037;52.010;4.446;2023-09-18T11:09:01;5.90;;;3.13;;
41293;SDS011;27037;52.010;4.446;2023-09-18T11:11:31;4.78;;;2.83;;
41293;SDS011;27037;52.010;4.446;2023-09-18T11:14:00;5.28;;;2.60;;
41293;SDS011;27037;52.010;4.446;2023-09-18T11:18:53;7.30;;;2.88;;
41293;SDS011;27037;52.010;4.446;2023-09-18T11:21:31;6.80;;;3.28;;
41293;SDS011;27037;52.010;4.446;2023-09-18T11:26:30;8.68;;;2.97;;
41293;SDS011;27037;52.010;4.446;2023-09-18T11:29:00;4.45;;;3.10;;
41293;SDS011;27037;52.010;4.446;2023-09-18T11:34:12;7.05;;;3.58;;
41293;SDS011;27037;52.010;4.446;2023-09-18T11:36:39;7.65;;;3.40;;
41293;SDS011;27037;52.010;4.446;2023-09-18T11:39:05;7.38;;;3.78;;
41293;SDS011;27037;52.010;4.446;2023-09-18T11:41:32;7.70;;;3.70;;
41293;SDS011;27037;52.010;4.446;2023-09-18T11:44:34;8.05;;;3.70;;
41293;SDS011;27037;52.010;4.446;2023-09-18T11:46:53;9.10;;;3.95;;
41293;SDS011;27037;52.010;4.446;2023-09-18T11:49:23;6.38;;;3.70;;
41293;SDS011;27037;52.010;4.446;2023-09-18T11:51:53;5.70;;;3.75;;
41293;SDS011;27037;52.010;4.446;2023-09-18T11:54:19;6.95;;;3.70;;
41293;SDS011;27037;52.010;4.446;2023-09-18T11:56:46;6.90;;;3.65;;
41293;SDS011;27037;52.010;4.446;2023-09-18T11:59:11;6.72;;;4.30;;
41293;SDS011;27037;52.010;4.446;2023-09-18T12:01:38;8.70;;;4.20;;
41293;SDS011;27037;52.010;4.446;2023-09-18T12:04:11;5.93;;;3.95;;
41293;SDS011;27037;52.010;4.446;2023-09-18T12:06:40;7.93;;;4.45;;
41293;SDS011;27037;52.010;4.446;2023-09-18T12:09:07;7.30;;;4.40;;
41293;SDS011;27037;52.010;4.446;2023-09-18T12:11:33;7.45;;;4.15;;
41293;SDS011;27037;52.010;4.446;2023-09-18T12:14:00;8.15;;;4.32;;
41293;SDS011;27037;52.010;4.446;2023-09-18T12:16:29;8.05;;;4.72;;
41293;SDS011;27037;52.010;4.446;2023-09-18T12:18:55;8.95;;;4.57;;
41293;SDS011;27037;52.010;4.446;2023-09-18T12:21:22;7.38;;;5.20;;
41293;SDS011;27037;52.010;4.446;2023-09-18T12:23:47;7.10;;;4.75;;
41293;SDS011;27037;52.010;4.446;2023-09-18T12:26:14;9.90;;;4.60;;
41293;SDS011;27037;52.010;4.446;2023-09-18T12:28:41;7.28;;;4.15;;
41293;SDS011;27037;52.010;4.446;2023-09-18T12:31:11;11.07;;;4.47;;
41293;SDS011;27037;52.010;4.446;2023-09-18T12:33:40;7.57;;;4.20;;
41293;SDS011;27037;52.010;4.446;2023-09-18T12:36:09;9.35;;;4.65;;
41293;SDS011;27037;52.010;4.446;2023-09-18T12:38:35;11.80;;;4.43;;
41293;SDS011;27037;52.010;4.446;2023-09-18T12:41:02;7.72;;;4.70;;
41293;SDS011;27037;52.010;4.446;2023-09-18T12:43:33;10.63;;;4.40;;
41293;SDS011;27037;52.010;4.446;2023-09-18T12:46:04;12.85;;;4.25;;
41293;SDS011;27037;52.010;4.446;2023-09-18T12:48:31;5.55;;;3.72;;
41293;SDS011;27037;52.010;4.446;2023-09-18T12:51:05;10.20;;;3.58;;
41293;SDS011;27037;52.010;4.446;2023-09-18T12:53:31;8.35;;;4.20;;
41293;SDS011;27037;52.010;4.446;2023-09-18T12:56:12;7.40;;;3.80;;
41293;SDS011;27037;52.010;4.446;2023-09-18T12:58:39;7.32;;;3.65;;
41293;SDS011;27037;52.010;4.446;2023-09-18T13:01:06;5.78;;;3.63;;
41293;SDS011;27037;52.010;4.446;2023-09-18T13:03:33;8.52;;;3.85;;
41293;SDS011;27037;52.010;4.446;2023-09-18T13:06:07;7.10;;;3.65;;
41293;SDS011;27037;52.010;4.446;2023-09-18T13:08:36;5.88;;;3.40;;
41293;SDS011;27037;52.010;4.446;2023-09-18T13:11:02;8.75;;;3.40;;
41293;SDS011;27037;52.010;4.446;2023-09-18T13:13:28;7.35;;;3.55;;
41293;SDS011;27037;52.010;4.446;2023-09-18T13:15:58;9.95;;;3.88;;
41293;SDS011;27037;52.010;4.446;2023-09-18T13:18:25;7.53;;;3.58;;
41293;SDS011;27037;52.010;4.446;2023-09-18T13:20:52;13.48;;;3.65;;
41293;SDS011;27037;52.010;4.446;2023-09-18T13:23:18;6.47;;;3.50;;
41293;SDS011;27037;52.010;4.446;2023-09-18T13:25:45;9.52;;;3.80;;
41293;SDS011;27037;52.010;4.446;2023-09-18T13:28:12;11.20;;;4.15;;
41293;SDS011;27037;52.010;4.446;2023-09-18T13:30:41;7.85;;;3.78;;
41293;SDS011;27037;52.010;4.446;2023-09-18T13:33:11;5.82;;;3.70;;
41293;SDS011;27037;52.010;4.446;2023-09-18T13:35:40;9.05;;;3.85;;
41293;SDS011;27037;52.010;4.446;2023-09-18T13:38:08;6.22;;;3.65;;
41293;SDS011;27037;52.010;4.446;2023-09-18T13:40:36;6.45;;;3.40;;
41293;SDS011;27037;52.010;4.446;2023-09-18T13:43:02;6.60;;;3.55;;
41293;SDS011;27037;52.010;4.446;2023-09-18T13:45:29;4.95;;;3.60;;
41293;SDS011;27037;52.010;4.446;2023-09-18T13:47:55;5.93;;;3.17;;
41293;SDS011;27037;52.010;4.446;2023-09-18T13:50:21;7.63;;;3.30;;
41293;SDS011;27037;52.010;4.446;2023-09-18T13:52:47;8.60;;;3.40;;
41293;SDS011;27037;52.010;4.446;2023-09-18T13:55:13;8.00;;;3.33;;
41293;SDS011;27037;52.010;4.446;2023-09-18T13:57:38;7.22;;;3.13;;
41293;SDS011;27037;52.010;4.446;2023-09-18T14:00:07;5.47;;;3.20;;
41293;SDS011;27037;52.010;4.446;2023-09-18T14:02:35;6.13;;;3.08;;
41293;SDS011;27037;52.010;4.446;2023-09-18T14:05:01;6.18;;;3.47;;
41293;SDS011;27037;52.010;4.446;2023-09-18T14:07:28;8.07;;;3.78;;
41293;SDS011;27037;52.010;4.446;2023-09-18T14:09:54;8.93;;;3.25;;
41293;SDS011;27037;52.010;4.446;2023-09-18T14:12:20;6.35;;;3.83;;
41293;SDS011;27037;52.010;4.446;2023-09-18T14:14:45;8.15;;;4.03;;
41293;SDS011;27037;52.010;4.446;2023-09-18T14:17:11;8.02;;;4.60;;
41293;SDS011;27037;52.010;4.446;2023-09-18T14:19:37;7.15;;;3.28;;
41293;SDS011;27037;52.010;4.446;2023-09-18T14:22:03;5.65;;;2.53;;
41293;SDS011;27037;52.010;4.446;2023-09-18T14:24:33;4.32;;;2.13;;
41293;SDS011;27037;52.010;4.446;2023-09-18T14:27:02;2.80;;;1.67;;
41293;SDS011;27037;52.010;4.446;2023-09-18T14:29:28;4.57;;;2.25;;
41293;SDS011;27037;52.010;4.446;2023-09-18T14:31:58;9.13;;;3.05;;
41293;SDS011;27037;52.010;4.446;2023-09-18T14:34:28;5.95;;;3.00;;
41293;SDS011;27037;52.010;4.446;2023-09-18T14:36:55;10.63;;;3.35;;
41293;SDS011;27037;52.010;4.446;2023-09-18T14:39:21;8.65;;;3.20;;
41293;SDS011;27037;52.010;4.446;2023-09-18T14:41:47;10.75;;;3.53;;
41293;SDS011;27037;52.010;4.446;2023-09-18T14:44:13;8.20;;;3.28;;
41293;SDS011;27037;52.010;4.446;2023-09-18T14:46:38;9.65;;;2.92;;
41293;SDS011;27037;52.010;4.446;2023-09-18T14:49:04;9.80;;;3.13;;